createdAt,value
2018-05-06T00:00:16.737Z,18.71
2018-05-06T00:01:16.761Z,18.7
2018-05-06T00:02:16.845Z,18.68
2018-05-06T00:03:16.826Z,18.68
2018-05-06T00:04:16.743Z,18.71
2018-05-06T00:05:16.886Z,18.68
2018-05-06T00:06:16.788Z,18.68
2018-05-06T00:07:16.879Z,18.66
2018-05-06T00:08:16.838Z,18.68
2018-05-06T00:09:16.743Z,18.7
2018-05-06T00:10:16.704Z,18.68
2018-05-06T00:11:16.876Z,18.7
2018-05-06T00:12:16.877Z,18.7
2018-05-06T00:13:17.029Z,18.68
2018-05-06T00:14:16.903Z,18.68
2018-05-06T00:15:17.794Z,18.68
2018-05-06T00:16:16.713Z,18.68
2018-05-06T00:17:16.714Z,18.67
2018-05-06T00:18:16.870Z,18.68
2018-05-06T00:19:16.783Z,18.68
2018-05-06T00:20:16.741Z,18.7
2018-05-06T00:21:16.993Z,18.71
2018-05-06T00:22:16.959Z,18.67
2018-05-06T00:23:16.801Z,18.68
2018-05-06T00:24:16.773Z,18.71
2018-05-06T00:25:16.731Z,18.66
2018-05-06T00:26:16.712Z,18.66
2018-05-06T00:27:16.699Z,18.68
2018-05-06T00:28:16.656Z,18.64
2018-05-06T00:29:16.901Z,18.67
2018-05-06T00:30:16.819Z,18.68
2018-05-06T00:31:16.940Z,18.67
2018-05-06T00:32:16.781Z,18.68
2018-05-06T00:33:16.748Z,18.7
2018-05-06T00:34:16.676Z,18.67
2018-05-06T00:35:16.835Z,18.67
2018-05-06T00:36:16.817Z,18.68
2018-05-06T00:37:16.694Z,18.64
2018-05-06T00:38:16.926Z,18.66
2018-05-06T00:39:16.738Z,18.7
2018-05-06T00:40:16.787Z,18.66
2018-05-06T00:41:16.886Z,18.67
2018-05-06T00:42:16.783Z,18.68
2018-05-06T00:43:16.775Z,18.64
2018-05-06T00:44:16.778Z,18.66
2018-05-06T00:45:16.794Z,18.67
2018-05-06T00:46:17.055Z,18.66
2018-05-06T00:47:16.942Z,18.66
2018-05-06T00:48:16.909Z,18.66
2018-05-06T00:49:16.871Z,18.66
2018-05-06T00:50:16.950Z,18.64
2018-05-06T00:51:16.890Z,18.67
2018-05-06T00:52:16.699Z,18.64
2018-05-06T00:53:16.906Z,18.67
2018-05-06T00:54:16.792Z,18.68
2018-05-06T00:55:16.819Z,18.64
2018-05-06T00:56:16.734Z,18.64
2018-05-06T00:57:16.810Z,18.67
2018-05-06T00:58:16.767Z,18.67
2018-05-06T00:59:16.874Z,18.67
2018-05-06T01:00:16.854Z,18.67
2018-05-06T01:01:16.883Z,18.63
2018-05-06T01:02:16.875Z,18.63
2018-05-06T01:03:16.984Z,18.66
2018-05-06T01:04:16.652Z,18.66
2018-05-06T01:05:16.952Z,18.64
2018-05-06T01:06:16.836Z,18.64
2018-05-06T01:07:16.883Z,18.64
2018-05-06T01:08:16.652Z,18.64
2018-05-06T01:09:16.766Z,18.67
2018-05-06T01:10:16.855Z,18.64
2018-05-06T01:11:16.876Z,18.66
2018-05-06T01:12:16.700Z,18.64
2018-05-06T01:13:16.925Z,18.63
2018-05-06T01:14:16.746Z,18.64
2018-05-06T01:15:16.991Z,18.64
2018-05-06T01:16:16.794Z,18.64
2018-05-06T01:17:16.898Z,18.64
2018-05-06T01:18:16.794Z,18.67
2018-05-06T01:19:16.914Z,18.66
2018-05-06T01:20:16.767Z,18.64
2018-05-06T01:21:16.902Z,18.66
2018-05-06T01:22:16.687Z,18.63
2018-05-06T01:23:16.756Z,18.66
2018-05-06T01:24:17.043Z,18.64
2018-05-06T01:25:16.892Z,18.63
2018-05-06T01:26:16.862Z,18.66
2018-05-06T01:27:16.888Z,18.66
2018-05-06T01:28:16.819Z,18.62
2018-05-06T01:29:16.739Z,18.63
2018-05-06T01:30:16.707Z,18.64
2018-05-06T01:31:16.887Z,18.6
2018-05-06T01:32:16.776Z,18.63
2018-05-06T01:33:16.858Z,18.66
2018-05-06T01:34:16.703Z,18.63
2018-05-06T01:35:16.701Z,18.66
2018-05-06T01:36:16.891Z,18.67
2018-05-06T01:37:16.763Z,18.62
2018-05-06T01:38:16.713Z,18.66
2018-05-06T01:39:16.878Z,18.63
2018-05-06T01:40:16.641Z,18.62
2018-05-06T01:41:16.664Z,18.64
2018-05-06T01:42:16.615Z,18.66
2018-05-06T01:43:16.806Z,18.63
2018-05-06T01:44:16.827Z,18.63
2018-05-06T01:45:16.782Z,18.62
2018-05-06T01:46:16.691Z,18.64
2018-05-06T01:47:16.653Z,18.63
2018-05-06T01:48:16.647Z,18.64
2018-05-06T01:49:16.749Z,18.6
2018-05-06T01:50:16.932Z,18.63
2018-05-06T01:51:16.732Z,18.64
2018-05-06T01:52:16.753Z,18.62
2018-05-06T01:53:16.849Z,18.63
2018-05-06T01:54:16.918Z,18.64
2018-05-06T01:55:16.813Z,18.62
2018-05-06T01:56:16.821Z,18.63
2018-05-06T01:57:16.817Z,18.67
2018-05-06T01:58:16.666Z,18.6
2018-05-06T01:59:16.839Z,18.63
2018-05-06T02:00:16.835Z,18.63
2018-05-06T02:01:16.624Z,18.62
2018-05-06T02:02:16.808Z,18.62
2018-05-06T02:03:17.069Z,18.63
2018-05-06T02:04:16.658Z,18.62
2018-05-06T02:05:16.815Z,18.63
2018-05-06T02:06:16.823Z,18.66
2018-05-06T02:07:16.796Z,18.6
2018-05-06T02:08:16.688Z,18.62
2018-05-06T02:09:16.872Z,18.62
2018-05-06T02:10:16.781Z,18.62
2018-05-06T02:11:16.921Z,18.62
2018-05-06T02:12:16.783Z,18.63
2018-05-06T02:13:16.676Z,18.58
2018-05-06T02:14:16.776Z,18.6
2018-05-06T02:15:16.741Z,18.64
2018-05-06T02:16:16.643Z,18.6
2018-05-06T02:17:16.757Z,18.58
2018-05-06T02:18:16.936Z,18.62
2018-05-06T02:19:16.712Z,18.6
2018-05-06T02:20:16.798Z,18.6
2018-05-06T02:21:16.826Z,18.63
2018-05-06T02:22:17.047Z,18.6
2018-05-06T02:23:16.684Z,18.62
2018-05-06T02:24:16.881Z,18.64
2018-05-06T02:25:16.771Z,18.6
2018-05-06T02:26:16.969Z,18.58
2018-05-06T02:27:16.830Z,18.63
2018-05-06T02:28:16.824Z,18.58
2018-05-06T02:29:16.785Z,18.58
2018-05-06T02:30:17.620Z,18.62
2018-05-06T02:31:16.840Z,18.6
2018-05-06T02:32:16.928Z,18.6
2018-05-06T02:33:16.698Z,18.6
2018-05-06T02:34:16.747Z,18.6
2018-05-06T02:35:16.920Z,18.6
2018-05-06T02:36:16.811Z,18.62
2018-05-06T02:37:16.902Z,18.58
2018-05-06T02:38:16.802Z,18.58
2018-05-06T02:39:16.650Z,18.63
2018-05-06T02:40:16.816Z,18.57
2018-05-06T02:41:16.602Z,18.62
2018-05-06T02:42:16.953Z,18.6
2018-05-06T02:43:16.807Z,18.58
2018-05-06T02:44:16.847Z,18.58
2018-05-06T02:45:16.673Z,18.62
2018-05-06T02:46:16.689Z,18.6
2018-05-06T02:47:16.795Z,18.58
2018-05-06T02:48:16.905Z,18.6
2018-05-06T02:49:16.787Z,18.57
2018-05-06T02:50:16.756Z,18.6
2018-05-06T02:51:16.694Z,18.6
2018-05-06T02:52:16.703Z,18.6
2018-05-06T02:53:16.775Z,18.58
2018-05-06T02:54:16.836Z,18.6
2018-05-06T02:55:16.720Z,18.58
2018-05-06T02:56:16.623Z,18.6
2018-05-06T02:57:16.782Z,18.62
2018-05-06T02:58:16.707Z,18.58
2018-05-06T02:59:16.612Z,18.6
2018-05-06T03:00:16.975Z,18.63
2018-05-06T03:01:16.860Z,18.58
2018-05-06T03:02:16.939Z,18.58
2018-05-06T03:03:16.796Z,18.58
2018-05-06T03:04:16.833Z,18.6
2018-05-06T03:05:16.793Z,18.6
2018-05-06T03:06:16.868Z,18.6
2018-05-06T03:07:16.734Z,18.58
2018-05-06T03:08:16.639Z,18.6
2018-05-06T03:09:16.886Z,18.58
2018-05-06T03:10:16.691Z,18.58
2018-05-06T03:11:16.834Z,18.58
2018-05-06T03:12:16.655Z,18.62
2018-05-06T03:13:16.858Z,18.57
2018-05-06T03:14:16.765Z,18.57
2018-05-06T03:15:16.927Z,18.6
2018-05-06T03:16:16.852Z,18.58
2018-05-06T03:17:16.699Z,18.6
2018-05-06T03:18:16.837Z,18.6
2018-05-06T03:19:16.830Z,18.58
2018-05-06T03:20:16.731Z,18.57
2018-05-06T03:21:16.707Z,18.6
2018-05-06T03:22:16.788Z,18.56
2018-05-06T03:23:16.753Z,18.57
2018-05-06T03:24:16.845Z,18.58
2018-05-06T03:25:16.821Z,18.57
2018-05-06T03:26:16.692Z,18.57
2018-05-06T03:27:16.837Z,18.58
2018-05-06T03:28:16.576Z,18.57
2018-05-06T03:29:16.771Z,18.58
2018-05-06T03:30:16.741Z,18.6
2018-05-06T03:31:16.831Z,18.56
2018-05-06T03:32:16.822Z,18.58
2018-05-06T03:33:16.797Z,18.57
2018-05-06T03:34:16.724Z,18.58
2018-05-06T03:35:16.875Z,18.57
2018-05-06T03:36:16.605Z,18.58
2018-05-06T03:37:16.702Z,18.57
2018-05-06T03:38:16.798Z,18.58
2018-05-06T03:39:16.687Z,18.6
2018-05-06T03:40:16.662Z,18.57
2018-05-06T03:41:16.649Z,18.57
2018-05-06T03:42:16.932Z,18.58
2018-05-06T03:43:16.765Z,18.54
2018-05-06T03:44:16.724Z,18.58
2018-05-06T03:45:16.744Z,18.62
2018-05-06T03:46:16.674Z,18.56
2018-05-06T03:47:16.765Z,18.56
2018-05-06T03:48:16.745Z,18.6
2018-05-06T03:49:16.859Z,18.54
2018-05-06T03:50:16.814Z,18.56
2018-05-06T03:51:16.651Z,18.58
2018-05-06T03:52:16.910Z,18.57
2018-05-06T03:53:16.745Z,18.54
2018-05-06T03:54:16.717Z,18.56
2018-05-06T03:55:16.843Z,18.56
2018-05-06T03:56:16.867Z,18.57
2018-05-06T03:57:16.836Z,18.58
2018-05-06T03:58:16.823Z,18.54
2018-05-06T03:59:16.700Z,18.58
2018-05-06T04:00:16.811Z,18.62
2018-05-06T04:01:16.738Z,18.56
2018-05-06T04:02:16.816Z,18.57
2018-05-06T04:03:16.854Z,18.57
2018-05-06T04:04:16.595Z,18.54
2018-05-06T04:05:16.820Z,18.57
2018-05-06T04:06:16.812Z,18.58
2018-05-06T04:07:16.624Z,18.56
2018-05-06T04:08:16.827Z,18.57
2018-05-06T04:09:16.635Z,18.56
2018-05-06T04:10:16.861Z,18.54
2018-05-06T04:11:16.762Z,18.57
2018-05-06T04:12:16.648Z,18.58
2018-05-06T04:13:16.849Z,18.57
2018-05-06T04:14:16.745Z,18.56
2018-05-06T04:15:16.671Z,18.6
2018-05-06T04:16:16.902Z,18.56
2018-05-06T04:17:16.702Z,18.56
2018-05-06T04:18:16.750Z,18.57
2018-05-06T04:19:16.734Z,18.54
2018-05-06T04:20:16.711Z,18.58
2018-05-06T04:21:17.251Z,18.58
2018-05-06T04:22:16.610Z,18.57
2018-05-06T04:23:16.763Z,18.57
2018-05-06T04:24:16.820Z,18.57
2018-05-06T04:25:16.839Z,18.53
2018-05-06T04:26:16.907Z,18.56
2018-05-06T04:27:16.859Z,18.58
2018-05-06T04:28:16.625Z,18.54
2018-05-06T04:29:16.715Z,18.58
2018-05-06T04:30:16.632Z,18.57
2018-05-06T04:31:16.639Z,18.57
2018-05-06T04:32:16.852Z,18.56
2018-05-06T04:33:16.859Z,18.57
2018-05-06T04:34:16.857Z,18.54
2018-05-06T04:35:16.823Z,18.56
2018-05-06T04:36:16.838Z,18.56
2018-05-06T04:37:16.861Z,18.53
2018-05-06T04:38:16.825Z,18.56
2018-05-06T04:39:16.833Z,18.54
2018-05-06T04:40:16.557Z,18.54
2018-05-06T04:41:16.785Z,18.56
2018-05-06T04:42:16.850Z,18.57
2018-05-06T04:43:16.813Z,18.53
2018-05-06T04:44:17.275Z,18.56
2018-05-06T04:45:16.810Z,18.56
2018-05-06T04:46:16.779Z,18.54
2018-05-06T04:47:16.877Z,18.54
2018-05-06T04:48:16.631Z,18.56
2018-05-06T04:49:16.733Z,18.54
2018-05-06T04:50:16.626Z,18.54
2018-05-06T04:51:16.770Z,18.54
2018-05-06T04:52:16.589Z,18.53
2018-05-06T04:53:16.645Z,18.54
2018-05-06T04:54:16.740Z,18.56
2018-05-06T04:55:16.627Z,18.53
2018-05-06T04:56:16.876Z,18.56
2018-05-06T04:57:16.787Z,18.56
2018-05-06T04:58:16.555Z,18.53
2018-05-06T04:59:16.601Z,18.56
2018-05-06T05:00:16.655Z,18.57
2018-05-06T05:01:16.708Z,18.54
2018-05-06T05:02:16.768Z,18.54
2018-05-06T05:03:16.785Z,18.57
2018-05-06T05:04:16.846Z,18.54
2018-05-06T05:05:16.718Z,18.54
2018-05-06T05:06:16.599Z,18.57
2018-05-06T05:07:16.724Z,18.54
2018-05-06T05:08:16.783Z,18.56
2018-05-06T05:09:16.701Z,18.57
2018-05-06T05:10:16.567Z,18.54
2018-05-06T05:11:16.662Z,18.53
2018-05-06T05:12:16.754Z,18.54
2018-05-06T05:13:16.704Z,18.54
2018-05-06T05:14:16.601Z,18.53
2018-05-06T05:15:16.790Z,18.57
2018-05-06T05:16:16.577Z,18.54
2018-05-06T05:17:16.587Z,18.54
2018-05-06T05:18:16.638Z,18.54
2018-05-06T05:19:16.801Z,18.53
2018-05-06T05:20:16.817Z,18.53
2018-05-06T05:21:16.657Z,18.57
2018-05-06T05:22:16.740Z,18.53
2018-05-06T05:23:16.809Z,18.53
2018-05-06T05:24:16.684Z,18.56
2018-05-06T05:25:16.873Z,18.53
2018-05-06T05:26:16.617Z,18.56
2018-05-06T05:27:16.840Z,18.54
2018-05-06T05:28:16.783Z,18.53
2018-05-06T05:29:16.711Z,18.54
2018-05-06T05:30:16.672Z,18.56
2018-05-06T05:31:16.905Z,18.51
2018-05-06T05:32:16.722Z,18.56
2018-05-06T05:33:16.763Z,18.54
2018-05-06T05:34:16.616Z,18.53
2018-05-06T05:35:16.689Z,18.54
2018-05-06T05:36:16.849Z,18.54
2018-05-06T05:37:16.884Z,18.54
2018-05-06T05:38:16.774Z,18.51
2018-05-06T05:39:16.826Z,18.56
2018-05-06T05:40:16.784Z,18.54
2018-05-06T05:41:16.807Z,18.56
2018-05-06T05:42:16.823Z,18.57
2018-05-06T05:43:16.611Z,18.53
2018-05-06T05:44:16.801Z,18.53
2018-05-06T05:45:16.722Z,18.56
2018-05-06T05:46:16.819Z,18.51
2018-05-06T05:47:16.791Z,18.54
2018-05-06T05:48:16.671Z,18.56
2018-05-06T05:49:16.628Z,18.51
2018-05-06T05:50:16.806Z,18.54
2018-05-06T05:51:16.739Z,18.54
2018-05-06T05:52:16.602Z,18.53
2018-05-06T05:53:16.798Z,18.54
2018-05-06T05:54:16.675Z,18.56
2018-05-06T05:55:16.772Z,18.53
2018-05-06T05:56:16.710Z,18.54
2018-05-06T05:57:16.748Z,18.57
2018-05-06T05:58:16.635Z,18.53
2018-05-06T05:59:16.634Z,18.53
2018-05-06T06:00:16.660Z,18.53
2018-05-06T06:01:16.628Z,18.53
2018-05-06T06:02:16.637Z,18.54
2018-05-06T06:03:16.618Z,18.53
2018-05-06T06:04:16.723Z,18.54
2018-05-06T06:05:16.757Z,18.54
2018-05-06T06:06:16.604Z,18.57
2018-05-06T06:07:16.831Z,18.53
2018-05-06T06:08:16.704Z,18.54
2018-05-06T06:09:16.600Z,18.58
2018-05-06T06:10:21.624Z,18.56
2018-05-06T06:11:16.617Z,18.53
2018-05-06T06:12:16.827Z,18.56
2018-05-06T06:13:16.747Z,18.51
2018-05-06T06:14:16.746Z,18.54
2018-05-06T06:15:16.650Z,18.54
2018-05-06T06:16:16.674Z,18.53
2018-05-06T06:17:16.554Z,18.54
2018-05-06T06:18:17.051Z,18.58
2018-05-06T06:19:16.787Z,18.53
2018-05-06T06:20:16.720Z,18.54
2018-05-06T06:21:16.744Z,18.56
2018-05-06T06:22:16.575Z,18.54
2018-05-06T06:23:16.583Z,18.54
2018-05-06T06:24:16.533Z,18.57
2018-05-06T06:25:16.638Z,18.54
2018-05-06T06:26:16.781Z,18.54
2018-05-06T06:27:16.583Z,18.56
2018-05-06T06:28:16.742Z,18.5
2018-05-06T06:29:16.852Z,18.56
2018-05-06T06:30:16.585Z,18.56
2018-05-06T06:31:16.662Z,18.54
2018-05-06T06:32:16.831Z,18.54
2018-05-06T06:33:16.621Z,18.56
2018-05-06T06:34:16.640Z,18.53
2018-05-06T06:35:16.775Z,18.54
2018-05-06T06:36:16.652Z,18.54
2018-05-06T06:37:16.921Z,18.54
2018-05-06T06:38:17.402Z,18.54
2018-05-06T06:39:16.590Z,18.56
2018-05-06T06:40:16.745Z,18.56
2018-05-06T06:41:16.570Z,18.54
2018-05-06T06:42:16.770Z,18.56
2018-05-06T06:43:16.822Z,18.54
2018-05-06T06:44:16.833Z,18.54
2018-05-06T06:45:16.603Z,18.54
2018-05-06T06:46:16.803Z,18.51
2018-05-06T06:47:16.698Z,18.57
2018-05-06T06:48:16.672Z,18.54
2018-05-06T06:49:16.594Z,18.54
2018-05-06T06:50:16.671Z,18.56
2018-05-06T06:51:16.787Z,18.56
2018-05-06T06:52:16.707Z,18.53
2018-05-06T06:53:16.577Z,18.54
2018-05-06T06:54:16.661Z,18.57
2018-05-06T06:55:16.624Z,18.53
2018-05-06T06:56:16.833Z,18.53
2018-05-06T06:57:16.642Z,18.56
2018-05-06T06:58:16.790Z,18.53
2018-05-06T06:59:16.617Z,18.54
2018-05-06T07:00:16.672Z,18.56
2018-05-06T07:01:16.637Z,18.56
2018-05-06T07:02:16.836Z,18.51
2018-05-06T07:03:16.631Z,18.56
2018-05-06T07:04:16.502Z,18.54
2018-05-06T07:05:16.717Z,18.56
2018-05-06T07:06:16.623Z,18.56
2018-05-06T07:07:16.733Z,18.51
2018-05-06T07:08:16.569Z,18.53
2018-05-06T07:09:16.551Z,18.54
2018-05-06T07:10:16.741Z,18.53
2018-05-06T07:11:17.257Z,18.56
2018-05-06T07:12:16.702Z,18.57
2018-05-06T07:13:16.625Z,18.53
2018-05-06T07:14:16.573Z,18.53
2018-05-06T07:15:16.822Z,18.54
2018-05-06T07:16:16.653Z,18.53
2018-05-06T07:17:16.564Z,18.53
2018-05-06T07:18:16.744Z,18.53
2018-05-06T07:19:17.073Z,18.51
2018-05-06T07:20:16.564Z,18.54
2018-05-06T07:21:16.749Z,18.56
2018-05-06T07:22:16.605Z,18.53
2018-05-06T07:23:16.653Z,18.54
2018-05-06T07:24:16.813Z,18.54
2018-05-06T07:25:16.654Z,18.51
2018-05-06T07:26:16.609Z,18.53
2018-05-06T07:27:16.755Z,18.51
2018-05-06T07:28:16.802Z,18.53
2018-05-06T07:29:16.711Z,18.53
2018-05-06T07:30:16.680Z,18.56
2018-05-06T07:31:16.769Z,18.51
2018-05-06T07:32:16.663Z,18.51
2018-05-06T07:33:16.747Z,18.54
2018-05-06T07:34:16.908Z,18.53
2018-05-06T07:35:16.546Z,18.5
2018-05-06T07:36:16.740Z,18.57
2018-05-06T07:37:16.926Z,18.51
2018-05-06T07:38:16.771Z,18.54
2018-05-06T07:39:16.793Z,18.53
2018-05-06T07:40:16.756Z,18.54
2018-05-06T07:41:16.775Z,18.53
2018-05-06T07:42:16.645Z,18.53
2018-05-06T07:43:16.583Z,18.51
2018-05-06T07:44:16.693Z,18.53
2018-05-06T07:45:16.817Z,18.54
2018-05-06T07:46:16.798Z,18.51
2018-05-06T07:47:16.770Z,18.53
2018-05-06T07:48:16.585Z,18.54
2018-05-06T07:49:16.805Z,18.51
2018-05-06T07:50:16.770Z,18.53
2018-05-06T07:51:16.776Z,18.54
2018-05-06T07:52:16.780Z,18.51
2018-05-06T07:53:16.626Z,18.53
2018-05-06T07:54:16.684Z,18.54
2018-05-06T07:55:16.578Z,18.51
2018-05-06T07:56:16.621Z,18.5
2018-05-06T07:57:16.774Z,18.54
2018-05-06T07:58:16.525Z,18.54
2018-05-06T07:59:16.511Z,18.51
2018-05-06T08:00:16.665Z,18.54
2018-05-06T08:01:16.587Z,18.53
2018-05-06T08:02:16.745Z,18.53
2018-05-06T08:03:16.605Z,18.54
2018-05-06T08:04:16.549Z,18.49
2018-05-06T08:05:16.763Z,18.54
2018-05-06T08:06:16.785Z,18.53
2018-05-06T08:07:16.564Z,18.51
2018-05-06T08:08:16.681Z,18.53
2018-05-06T08:09:16.775Z,18.53
2018-05-06T08:10:16.649Z,18.53
2018-05-06T08:11:16.543Z,18.51
2018-05-06T08:12:16.721Z,18.56
2018-05-06T08:13:16.523Z,18.5
2018-05-06T08:14:16.541Z,18.53
2018-05-06T08:15:16.702Z,18.58
2018-05-06T08:16:17.177Z,18.62
2018-05-06T08:17:16.730Z,18.6
2018-05-06T08:18:16.828Z,18.63
2018-05-06T08:19:16.706Z,18.62
2018-05-06T08:20:16.580Z,18.64
2018-05-06T08:21:16.520Z,18.64
2018-05-06T08:22:16.751Z,18.68
2018-05-06T08:23:16.815Z,18.68
2018-05-06T08:24:16.768Z,18.71
2018-05-06T08:25:16.846Z,18.74
2018-05-06T08:26:16.659Z,18.75
2018-05-06T08:27:16.782Z,18.8
2018-05-06T08:28:16.616Z,18.81
2018-05-06T08:29:16.504Z,18.83
2018-05-06T08:30:16.695Z,18.87
2018-05-06T08:31:16.706Z,18.85
2018-05-06T08:32:16.903Z,18.9
2018-05-06T08:33:16.601Z,18.88
2018-05-06T08:34:16.581Z,18.88
2018-05-06T08:35:16.776Z,18.91
2018-05-06T08:36:16.642Z,18.91
2018-05-06T08:37:16.681Z,18.92
2018-05-06T08:38:16.593Z,18.92
2018-05-06T08:39:16.743Z,18.95
2018-05-06T08:40:16.809Z,18.94
2018-05-06T08:41:16.766Z,18.94
2018-05-06T08:42:16.626Z,18.95
2018-05-06T08:43:16.876Z,18.92
2018-05-06T08:44:16.779Z,18.95
2018-05-06T08:45:16.707Z,18.97
2018-05-06T08:46:17.210Z,18.92
2018-05-06T08:47:16.771Z,18.99
2018-05-06T08:48:16.749Z,18.98
2018-05-06T08:49:16.793Z,18.98
2018-05-06T08:50:16.826Z,18.98
2018-05-06T08:51:16.747Z,19.02
2018-05-06T08:52:16.694Z,18.99
2018-05-06T08:53:16.690Z,19.01
2018-05-06T08:54:16.690Z,19.02
2018-05-06T08:55:16.730Z,19.01
2018-05-06T08:56:21.951Z,19.03
2018-05-06T08:57:17.743Z,19.05
2018-05-06T08:58:16.800Z,19.03
2018-05-06T08:59:16.701Z,19.05
2018-05-06T09:00:16.688Z,19.06
2018-05-06T09:01:16.743Z,19.02
2018-05-06T09:02:16.532Z,19.05
2018-05-06T09:03:16.609Z,19.06
2018-05-06T09:04:16.650Z,19.05
2018-05-06T09:05:16.631Z,19.06
2018-05-06T09:06:16.708Z,19.08
2018-05-06T09:07:16.723Z,19.08
2018-05-06T09:08:16.753Z,19.08
2018-05-06T09:09:16.493Z,19.11
2018-05-06T09:10:16.742Z,19.06
2018-05-06T09:11:16.517Z,19.09
2018-05-06T09:12:16.723Z,19.12
2018-05-06T09:13:16.652Z,19.09
2018-05-06T09:14:16.644Z,19.11
2018-05-06T09:15:16.754Z,19.13
2018-05-06T09:16:16.630Z,19.05
2018-05-06T09:17:16.906Z,19.09
2018-05-06T09:18:16.637Z,19.12
2018-05-06T09:19:16.573Z,19.09
2018-05-06T09:20:16.718Z,19.11
2018-05-06T09:21:16.709Z,19.11
2018-05-06T09:22:16.516Z,19.11
2018-05-06T09:23:16.784Z,19.09
2018-05-06T09:24:16.641Z,19.12
2018-05-06T09:25:17.127Z,19.16
2018-05-06T09:26:16.585Z,19.16
2018-05-06T09:27:16.568Z,19.13
2018-05-06T09:28:16.768Z,19.11
2018-05-06T09:29:16.683Z,19.12
2018-05-06T09:30:16.627Z,19.12
2018-05-06T09:31:16.645Z,19.09
2018-05-06T09:32:17.238Z,19.11
2018-05-06T09:33:16.763Z,19.11
2018-05-06T09:34:16.440Z,19.08
2018-05-06T09:35:16.789Z,19.09
2018-05-06T09:36:16.657Z,19.06
2018-05-06T09:37:16.739Z,19.03
2018-05-06T09:38:16.659Z,19.06
2018-05-06T09:39:16.638Z,19.06
2018-05-06T09:40:16.500Z,19.03
2018-05-06T09:41:16.852Z,19.06
2018-05-06T09:42:16.760Z,19.02
2018-05-06T09:43:16.661Z,19.02
2018-05-06T09:44:16.798Z,19.02
2018-05-06T09:45:16.675Z,19.03
2018-05-06T09:46:16.521Z,19.03
2018-05-06T09:47:16.742Z,19.02
2018-05-06T09:48:16.636Z,19.03
2018-05-06T09:49:16.614Z,19.03
2018-05-06T09:50:16.537Z,19.06
2018-05-06T09:51:16.639Z,19.08
2018-05-06T09:52:16.800Z,19.05
2018-05-06T09:53:16.797Z,19.08
2018-05-06T09:54:16.710Z,19.09
2018-05-06T09:55:16.540Z,19.06
2018-05-06T09:56:16.642Z,19.11
2018-05-06T09:57:16.531Z,19.11
2018-05-06T09:58:16.485Z,19.11
2018-05-06T09:59:16.618Z,19.11
2018-05-06T10:00:16.540Z,19.12
2018-05-06T10:01:16.769Z,19.12
2018-05-06T10:02:16.667Z,19.13
2018-05-06T10:03:16.693Z,19.13
2018-05-06T10:04:16.643Z,19.12
2018-05-06T10:05:16.789Z,19.12
2018-05-06T10:06:16.604Z,19.15
2018-05-06T10:07:16.657Z,19.15
2018-05-06T10:08:17.368Z,19.13
2018-05-06T10:09:16.702Z,19.18
2018-05-06T10:10:16.643Z,19.15
2018-05-06T10:11:16.851Z,19.18
2018-05-06T10:12:16.646Z,19.16
2018-05-06T10:13:16.864Z,19.16
2018-05-06T10:14:16.836Z,19.15
2018-05-06T10:15:16.694Z,19.15
2018-05-06T10:16:16.529Z,19.15
2018-05-06T10:17:16.755Z,19.16
2018-05-06T10:18:16.674Z,19.19
2018-05-06T10:19:16.536Z,19.19
2018-05-06T10:20:16.780Z,19.19
2018-05-06T10:21:16.649Z,19.2
2018-05-06T10:22:17.075Z,19.18
2018-05-06T10:23:16.749Z,19.2
2018-05-06T10:24:16.576Z,19.22
2018-05-06T10:25:16.628Z,19.22
2018-05-06T10:26:17.164Z,19.19
2018-05-06T10:27:16.733Z,19.22
2018-05-06T10:28:16.616Z,19.22
2018-05-06T10:29:16.779Z,19.22
2018-05-06T10:30:16.589Z,19.26
2018-05-06T10:31:16.611Z,19.23
2018-05-06T10:32:16.565Z,19.2
2018-05-06T10:33:16.572Z,19.23
2018-05-06T10:34:16.674Z,19.2
2018-05-06T10:35:16.753Z,19.25
2018-05-06T10:36:16.709Z,19.26
2018-05-06T10:37:16.565Z,19.25
2018-05-06T10:38:16.870Z,19.26
2018-05-06T10:39:16.644Z,19.26
2018-05-06T10:40:16.599Z,19.25
2018-05-06T10:41:16.871Z,19.25
2018-05-06T10:42:17.138Z,19.29
2018-05-06T10:43:16.920Z,19.26
2018-05-06T10:44:17.547Z,19.3
2018-05-06T10:45:16.811Z,19.27
2018-05-06T10:46:16.534Z,19.26
2018-05-06T10:47:16.757Z,19.29
2018-05-06T10:48:16.710Z,19.29
2018-05-06T10:49:17.934Z,19.27
2018-05-06T10:50:20.760Z,19.3
2018-05-06T10:51:16.664Z,19.32
2018-05-06T10:52:16.469Z,19.33
2018-05-06T10:53:16.700Z,19.35
2018-05-06T10:54:16.842Z,19.36
2018-05-06T10:55:16.614Z,19.32
2018-05-06T10:56:16.788Z,19.33
2018-05-06T10:57:16.626Z,19.33
2018-05-06T10:58:16.719Z,19.33
2018-05-06T10:59:16.710Z,19.33
2018-05-06T11:00:16.767Z,19.35
2018-05-06T11:01:16.486Z,19.3
2018-05-06T11:02:16.829Z,19.35
2018-05-06T11:03:16.716Z,19.36
2018-05-06T11:04:16.783Z,19.32
2018-05-06T11:05:16.862Z,19.32
2018-05-06T11:06:16.605Z,19.33
2018-05-06T11:07:16.623Z,19.32
2018-05-06T11:08:16.778Z,19.36
2018-05-06T11:09:16.601Z,19.35
2018-05-06T11:10:17.346Z,19.36
2018-05-06T11:11:16.562Z,19.36
2018-05-06T11:12:16.601Z,19.37
2018-05-06T11:13:16.743Z,19.37
2018-05-06T11:14:16.641Z,19.32
2018-05-06T11:15:16.677Z,19.35
2018-05-06T11:16:16.488Z,19.32
2018-05-06T11:17:16.653Z,19.32
2018-05-06T11:18:16.682Z,19.32
2018-05-06T11:19:16.640Z,19.3
2018-05-06T11:20:18.667Z,19.29
2018-05-06T11:21:16.488Z,19.3
2018-05-06T11:22:16.497Z,19.25
2018-05-06T11:23:16.842Z,19.26
2018-05-06T11:24:16.672Z,19.26
2018-05-06T11:25:16.501Z,19.26
2018-05-06T11:26:17.190Z,19.26
2018-05-06T11:27:16.625Z,19.27
2018-05-06T11:28:16.491Z,19.22
2018-05-06T11:29:16.724Z,19.27
2018-05-06T11:30:16.497Z,19.23
2018-05-06T11:31:16.428Z,19.22
2018-05-06T11:32:16.679Z,19.26
2018-05-06T11:33:16.723Z,19.23
2018-05-06T11:34:16.651Z,19.2
2018-05-06T11:35:16.593Z,19.22
2018-05-06T11:36:16.583Z,19.2
2018-05-06T11:37:16.475Z,19.19
2018-05-06T11:38:16.618Z,19.22
2018-05-06T11:39:16.541Z,19.23
2018-05-06T11:40:16.705Z,19.22
2018-05-06T11:41:16.662Z,19.19
2018-05-06T11:42:16.537Z,19.19
2018-05-06T11:43:16.777Z,19.16
2018-05-06T11:44:16.678Z,19.18
2018-05-06T11:45:16.720Z,19.16
2018-05-06T11:46:16.487Z,19.13
2018-05-06T11:47:16.567Z,19.13
2018-05-06T11:48:16.487Z,19.12
2018-05-06T11:49:16.635Z,19.11
2018-05-06T11:50:16.624Z,19.09
2018-05-06T11:51:16.553Z,19.08
2018-05-06T11:52:16.720Z,19.05
2018-05-06T11:53:16.541Z,19.06
2018-05-06T11:54:16.708Z,19.06
2018-05-06T11:55:16.491Z,19.03
2018-05-06T11:56:17.321Z,19.02
2018-05-06T11:57:16.536Z,19.05
2018-05-06T11:58:17.273Z,19.03
2018-05-06T11:59:16.551Z,19.03
2018-05-06T12:00:16.614Z,19.03
2018-05-06T12:01:16.616Z,18.99
2018-05-06T12:02:17.367Z,19.02
2018-05-06T12:03:16.662Z,19.02
2018-05-06T12:04:16.435Z,19.03
2018-05-06T12:05:16.666Z,19.01
2018-05-06T12:06:16.574Z,19.01
2018-05-06T12:07:16.655Z,18.99
2018-05-06T12:08:16.596Z,18.99
2018-05-06T12:09:16.562Z,19.01
2018-05-06T12:10:16.631Z,18.99
2018-05-06T12:11:16.788Z,18.98
2018-05-06T12:12:16.571Z,18.99
2018-05-06T12:13:16.653Z,18.98
2018-05-06T12:14:16.619Z,18.98
2018-05-06T12:15:16.611Z,18.99
2018-05-06T12:16:16.459Z,18.98
2018-05-06T12:17:16.523Z,18.99
2018-05-06T12:18:16.531Z,19.01
2018-05-06T12:19:16.619Z,18.98
2018-05-06T12:20:16.682Z,18.98
2018-05-06T12:21:16.564Z,19.02
2018-05-06T12:22:16.473Z,18.95
2018-05-06T12:23:16.578Z,19.01
2018-05-06T12:24:16.706Z,18.99
2018-05-06T12:25:16.554Z,18.97
2018-05-06T12:26:16.489Z,18.98
2018-05-06T12:27:16.646Z,18.98
2018-05-06T12:28:16.498Z,18.95
2018-05-06T12:29:16.475Z,18.99
2018-05-06T12:30:16.631Z,18.98
2018-05-06T12:31:16.507Z,18.94
2018-05-06T12:32:16.475Z,18.95
2018-05-06T12:33:16.505Z,18.98
2018-05-06T12:34:16.527Z,18.95
2018-05-06T12:35:16.548Z,18.94
2018-05-06T12:36:16.495Z,18.98
2018-05-06T12:37:16.667Z,18.95
2018-05-06T12:38:16.466Z,18.97
2018-05-06T12:39:16.630Z,18.97
2018-05-06T12:40:16.463Z,18.94
2018-05-06T12:41:16.459Z,18.95
2018-05-06T12:42:16.695Z,18.97
2018-05-06T12:43:17.444Z,18.95
2018-05-06T12:44:16.608Z,18.94
2018-05-06T12:45:16.722Z,18.97
2018-05-06T12:46:16.544Z,18.97
2018-05-06T12:47:16.527Z,18.97
2018-05-06T12:48:16.534Z,18.95
2018-05-06T12:49:16.712Z,18.95
2018-05-06T12:50:16.752Z,18.97
2018-05-06T12:51:16.556Z,18.95
2018-05-06T12:52:16.553Z,18.94
2018-05-06T12:53:16.753Z,18.94
2018-05-06T12:54:16.916Z,18.97